Time;durP1;ratioP1;P1;durP2;ratioP2;P2;SDS_P1;SDS_P2;PMS_P1;PMS_P2;Temp;Humidity;BMP_temperature;BMP_pressure;BME280_temperature;BME280_humidity;BME280_pressure;Samples;Min_cycle;Max_cycle;Signal;HPM_P1;HPM_P2
2022/06/18 16:30:56;;;;;;;2.35;1.52;;;;;;;22.55;44.99;96750.13;4907461;27;20458;-61
2022/06/18 16:33:34;;;;;;;2.30;1.80;;;;;;;22.53;45.83;96752.06;4989615;28;20134;-61
2022/06/18 16:36:12;;;;;;;5.68;1.63;;;;;;;22.44;46.08;96753.69;4954482;28;20492;-60
2022/06/18 16:38:53;;;;;;;2.17;1.70;;;;;;;22.34;46.98;96749.09;4991137;28;20429;-61
2022/06/18 16:41:23;;;;;;;2.40;1.98;;;;;;;22.38;46.53;96754.19;5030000;28;20050;-60
2022/06/18 16:44:14;;;;;;;4.63;2.08;;;;;;;22.39;47.04;96761.22;5029994;28;20042;-60
2022/06/18 16:46:44;;;;;;;5.32;2.00;;;;;;;22.37;47.20;96766.69;5030265;28;20046;-61
2022/06/18 16:49:16;;;;;;;1.70;1.60;;;;;;;22.28;47.31;96768.28;5030216;28;20073;-61
2022/06/18 16:51:48;;;;;;;6.60;2.35;;;;;;;22.26;47.50;96764.91;5029980;28;20046;-60
2022/06/18 16:54:29;;;;;;;3.58;2.47;;;;;;;22.24;47.54;96769.50;5017070;28;20074;-60
2022/06/18 16:56:57;;;;;;;4.35;2.20;;;;;;;22.19;47.76;96769.88;5008267;28;20443;-61
2022/06/18 16:59:28;;;;;;;4.95;1.88;;;;;;;22.06;47.92;96766.50;5009931;28;20061;-60
2022/06/18 17:01:57;;;;;;;;;;;;;;;21.94;48.72;96763.03;5012566;28;20038;-60
2022/06/18 17:04:26;;;;;;;1.83;1.73;;;;;;;21.77;49.15;96772.41;5009703;28;19937;-60
2022/06/18 17:06:57;;;;;;;1.60;1.50;;;;;;;21.58;48.94;96766.69;5009469;28;20125;-60
2022/06/18 17:09:26;;;;;;;4.20;1.77;;;;;;;21.53;49.95;96771.56;5009979;28;20053;-60
2022/06/18 17:11:53;;;;;;;2.25;1.95;;;;;;;21.53;50.23;96774.22;5005634;28;20052;-60
2022/06/18 17:14:20;;;;;;;5.10;2.70;;;;;;;21.50;49.78;96765.63;4999941;28;20489;-60
2022/06/18 17:16:48;;;;;;;3.65;2.67;;;;;;;21.48;51.28;96770.19;5001374;28;20130;-61
2022/06/18 17:19:17;;;;;;;3.35;2.53;;;;;;;21.42;51.90;96775.06;4999813;28;20084;-59
2022/06/18 17:21:46;;;;;;;9.82;3.20;;;;;;;21.35;51.86;96781.81;5005764;28;20046;-61
2022/06/18 17:32:29;;;;;;;2.78;1.98;;;;;;;20.91;54.68;96777.16;5003266;28;20120;-61
2022/06/18 17:34:57;;;;;;;4.30;2.00;;;;;;;20.81;55.56;96782.31;4999433;28;20070;-60
2022/06/18 17:37:26;;;;;;;5.63;1.85;;;;;;;20.70;54.92;96779.63;5031775;28;20073;-61
2022/06/18 17:39:55;;;;;;;3.83;1.90;;;;;;;20.56;54.97;96776.19;4998734;28;20109;-60
2022/06/18 17:42:22;;;;;;;2.35;1.70;;;;;;;20.32;54.43;96779.72;4990618;28;20082;-60
2022/06/18 17:44:49;;;;;;;4.65;1.83;;;;;;;20.13;56.04;96776.72;4987323;28;20125;-60
2022/06/18 17:47:18;;;;;;;5.47;2.55;;;;;;;19.95;57.23;96783.25;4986048;28;20488;-60
2022/06/18 17:49:45;;;;;;;6.53;2.33;;;;;;;19.85;57.91;96779.56;4986660;28;20093;-60
2022/06/18 17:52:18;;;;;;;4.38;2.33;;;;;;;19.73;58.81;96775.97;4988201;28;20046;-60
2022/06/18 17:54:46;;;;;;;5.43;2.50;;;;;;;19.62;58.70;96775.91;4984914;28;20118;-60
2022/06/18 17:57:14;;;;;;;3.95;2.42;;;;;;;19.50;58.61;96773.16;4985497;28;20424;-60
2022/06/18 17:59:42;;;;;;;4.38;2.60;;;;;;;19.39;59.12;96775.72;4988487;28;20055;-60
2022/06/18 18:02:16;;;;;;;2.63;2.25;;;;;;;19.24;59.38;96783.81;4984815;28;20043;-61
2022/06/18 18:04:45;;;;;;;2.85;2.53;;;;;;;19.11;59.51;96786.44;4984954;28;20130;-60
2022/06/18 18:07:16;;;;;;;5.35;2.80;;;;;;;18.97;60.16;96784.72;4984103;28;20397;-60
2022/06/18 18:09:48;;;;;;;7.57;3.10;;;;;;;18.87;60.43;96788.97;4987230;28;20562;-60
2022/06/18 18:12:18;;;;;;;4.90;3.03;;;;;;;18.74;60.58;96791.56;4986504;28;20052;-60
2022/06/18 18:14:49;;;;;;;7.78;3.78;;;;;;;18.64;60.94;96796.66;4986748;28;20377;-58
2022/06/18 18:17:17;;;;;;;8.65;3.22;;;;;;;18.52;61.37;96796.53;4986089;28;20051;-58
2022/06/18 18:19:44;;;;;;;5.15;3.80;;;;;;;18.35;61.33;96796.75;4988184;28;20492;-60
2022/06/18 18:22:12;;;;;;;5.85;3.25;;;;;;;18.22;61.52;96802.03;4989440;28;20053;-60
2022/06/18 18:24:41;;;;;;;5.40;2.65;;;;;;;18.03;62.06;96808.50;4985420;28;20125;-61
2022/06/18 18:27:14;;;;;;;7.55;3.17;;;;;;;17.85;62.57;96813.97;4983733;28;20425;-57
2022/06/18 18:29:41;;;;;;;4.60;2.50;;;;;;;17.73;63.10;96807.66;4987602;28;20145;-53
2022/06/18 18:32:11;;;;;;;7.75;2.35;;;;;;;17.55;63.88;96823.75;4986259;28;20077;-59
2022/06/18 18:34:39;;;;;;;4.50;2.33;;;;;;;17.43;64.18;96824.53;4985022;28;20051;-58
2022/06/18 18:37:07;;;;;;;3.42;2.53;;;;;;;17.35;64.45;96818.84;4984329;28;20062;-54
2022/06/18 18:39:35;;;;;;;2.42;2.15;;;;;;;17.21;65.08;96824.97;4985924;28;20117;-53
2022/06/18 18:42:05;;;;;;;4.47;2.30;;;;;;;17.04;65.28;96825.00;4987393;28;20070;-57
2022/06/18 18:44:35;;;;;;;2.28;2.08;;;;;;;16.89;65.96;96821.47;4985929;28;20046;-58
2022/06/18 18:47:02;;;;;;;3.20;2.45;;;;;;;16.73;66.43;96828.59;4985592;28;20050;-58
2022/06/18 18:49:30;;;;;;;5.70;3.13;;;;;;;16.64;66.68;96833.50;4983697;28;20046;-60
2022/06/18 18:51:58;;;;;;;7.10;2.85;;;;;;;16.52;67.32;96826.28;4993194;28;20097;-60
2022/06/18 18:54:26;;;;;;;4.82;2.85;;;;;;;16.37;67.58;96830.63;4986363;28;20137;-60
2022/06/18 18:56:54;;;;;;;5.70;2.55;;;;;;;16.28;67.81;96830.25;4985880;28;20046;-60
2022/06/18 18:59:22;;;;;;;3.80;2.30;;;;;;;16.16;68.37;96831.78;4982620;28;20086;-59
2022/06/18 19:01:51;;;;;;;3.60;2.75;;;;;;;16.16;68.58;96834.41;4986127;28;20043;-60
2022/06/18 19:04:18;;;;;;;3.45;2.40;;;;;;;16.09;68.72;96840.13;4983939;28;20043;-60
2022/06/18 19:06:50;;;;;;;2.97;2.55;;;;;;;16.00;68.80;96844.13;4985483;28;20412;-60
2022/06/18 19:09:18;;;;;;;3.65;2.60;;;;;;;15.88;69.36;96848.25;4985011;28;20093;-60
2022/06/18 19:14:33;;;;;;;5.43;2.97;;;;;;;15.87;69.48;96846.56;4989754;28;20056;-60
2022/06/18 19:17:03;;;;;;;2.90;2.67;;;;;;;15.83;69.64;96852.94;4983528;28;20042;-60
2022/06/18 19:19:32;;;;;;;3.33;2.58;;;;;;;15.78;69.51;96848.75;4985360;28;20050;-60
2022/06/18 19:22:02;;;;;;;3.25;2.95;;;;;;;15.76;69.45;96853.28;4986556;28;20046;-61
2022/06/18 19:24:30;;;;;;;4.45;2.50;;;;;;;15.75;69.40;96851.56;4985240;28;20443;-60
2022/06/18 19:27:01;;;;;;;2.78;2.50;;;;;;;15.78;69.52;96846.09;4984827;28;20082;-60
2022/06/18 19:29:29;;;;;;;3.83;2.80;;;;;;;15.83;69.47;96848.50;4985019;28;20050;-60
2022/06/18 19:31:58;;;;;;;2.78;2.30;;;;;;;15.86;69.40;96855.41;4994446;28;20049;-60
2022/06/18 19:34:29;;;;;;;7.45;2.58;;;;;;;15.83;69.20;96853.78;5012036;28;20388;-61
2022/06/18 19:36:56;;;;;;;;;;;;;;;15.88;69.13;96864.09;5002597;28;20484;-60
2022/06/18 19:39:27;;;;;;;2.85;2.38;;;;;;;15.78;69.23;96858.47;4986512;28;19969;-60
2022/06/18 19:41:56;;;;;;;2.70;2.10;;;;;;;15.80;69.24;96853.94;4984850;28;20043;-59
2022/06/18 19:44:25;;;;;;;3.03;2.72;;;;;;;15.72;69.21;96853.53;4993171;28;20406;-60
2022/06/18 19:46:56;;;;;;;7.07;3.03;;;;;;;15.62;69.52;96861.91;4994189;28;20077;-60
2022/06/18 19:49:27;;;;;;;7.60;2.60;;;;;;;15.58;69.68;96859.53;4994090;28;20046;-60
2022/06/18 19:52:00;;;;;;;5.68;2.80;;;;;;;15.58;69.62;96847.19;4976192;28;20047;-59
2022/06/18 19:54:28;;;;;;;2.30;2.10;;;;;;;15.56;69.76;96850.84;4983668;28;20407;-60
2022/06/18 19:56:56;;;;;;;2.75;2.38;;;;;;;15.47;69.87;96853.03;5013669;28;20504;-59
2022/06/18 19:59:25;;;;;;;5.30;2.40;;;;;;;15.38;70.13;96850.91;5013701;28;20057;-59
2022/06/18 20:01:54;;;;;;;3.42;2.50;;;;;;;15.33;70.16;96852.91;5013600;28;20471;-59
2022/06/18 20:04:22;;;;;;;5.78;2.30;;;;;;;15.28;70.49;96850.53;4995825;28;20050;-60
2022/06/18 20:06:52;;;;;;;4.88;2.30;;;;;;;15.24;70.32;96847.22;4994012;28;20432;-59
2022/06/18 20:09:20;;;;;;;12.02;3.10;;;;;;;15.18;70.65;96844.88;4993958;28;20047;-60
2022/06/18 20:11:47;;;;;;;3.35;2.50;;;;;;;15.13;70.73;96847.75;4993961;28;20085;-59
2022/06/18 20:14:15;;;;;;;2.80;2.60;;;;;;;15.03;70.93;96852.63;4994618;28;20050;-60
2022/06/18 20:16:42;;;;;;;7.57;3.00;;;;;;;15.00;70.89;96841.41;4993829;28;20062;-59
2022/06/18 20:19:09;;;;;;;2.90;2.70;;;;;;;15.01;71.36;96853.66;4993732;28;20055;-60
2022/06/18 20:21:41;;;;;;;2.53;2.15;;;;;;;15.03;71.46;96847.34;4993783;28;20050;-59
2022/06/18 20:24:11;;;;;;;6.35;2.78;;;;;;;14.90;71.75;96851.59;4994814;28;20539;-59
2022/06/18 20:26:38;;;;;;;5.65;2.90;;;;;;;14.93;71.88;96850.56;4993899;28;20046;-59
2022/06/18 20:29:06;;;;;;;2.90;2.65;;;;;;;14.90;71.88;96848.94;4993318;28;20420;-60
2022/06/18 20:31:34;;;;;;;4.20;2.55;;;;;;;14.89;71.65;96842.81;4993602;28;20511;-60
2022/06/18 20:34:01;;;;;;;4.18;2.70;;;;;;;14.91;71.64;96850.63;4994616;28;20045;-60
2022/06/18 20:36:28;;;;;;;2.90;2.47;;;;;;;14.90;71.62;96843.69;4993522;28;20133;-60
2022/06/18 20:38:56;;;;;;;4.93;3.03;;;;;;;14.77;71.45;96839.00;4993387;28;20129;-60
2022/06/18 20:41:25;;;;;;;3.83;2.53;;;;;;;14.72;71.59;96842.78;4993643;28;20480;-61
2022/06/18 20:43:57;;;;;;;7.57;2.60;;;;;;;14.69;71.64;96850.84;4993579;28;20050;-60
2022/06/18 20:46:26;;;;;;;4.30;2.50;;;;;;;14.68;71.56;96857.00;5011338;28;20127;-60
2022/06/18 20:48:56;;;;;;;2.47;2.10;;;;;;;14.63;71.60;96846.72;5013181;28;20077;-60
2022/06/18 20:51:26;;;;;;;10.10;3.00;;;;;;;14.60;71.63;96844.25;5013202;28;20050;-60
2022/06/18 20:57:05;;;;;;;4.38;2.60;;;;;;;14.55;71.57;96841.84;5013124;28;20349;-60
2022/06/18 20:59:29;;;;;;;3.40;2.80;;;;;;;14.37;72.64;96836.56;4993439;28;20057;-59
2022/06/18 21:01:57;;;;;;;2.53;2.33;;;;;;;14.28;72.42;96840.50;4993352;28;20508;-60
2022/06/18 21:04:26;;;;;;;3.90;2.55;;;;;;;14.22;72.32;96843.41;5004946;28;20051;-60
2022/06/18 21:06:54;;;;;;;4.32;2.80;;;;;;;14.20;72.76;96840.00;5012962;28;20546;-60
2022/06/18 21:09:22;;;;;;;4.40;2.65;;;;;;;14.19;72.80;96837.44;5012911;28;20045;-59
2022/06/18 21:11:51;;;;;;;3.40;2.67;;;;;;;14.21;72.62;96839.06;5012726;28;20050;-59
2022/06/18 21:14:20;;;;;;;3.00;2.63;;;;;;;14.19;72.53;96848.81;5004205;28;20056;-60
2022/06/18 21:16:48;;;;;;;3.50;2.70;;;;;;;14.14;72.57;96846.41;4995580;28;20047;-59
2022/06/18 21:19:18;;;;;;;5.28;2.90;;;;;;;14.03;74.21;96840.81;4996762;28;20042;-59
2022/06/18 21:21:50;;;;;;;2.80;2.60;;;;;;;14.01;74.20;96843.50;4996894;28;20052;-59
2022/06/18 21:24:24;;;;;;;4.80;2.90;;;;;;;14.06;73.60;96851.16;5013987;28;20069;-60
2022/06/18 21:26:54;;;;;;;4.95;2.88;;;;;;;13.96;74.60;96842.00;5016461;28;20046;-59
2022/06/18 21:29:24;;;;;;;2.95;2.75;;;;;;;13.87;75.00;96841.53;5016074;28;20056;-60
2022/06/18 21:37:22;;;;;;;3.20;2.90;;;;;;;13.83;74.94;96846.97;4996664;28;20502;-60
2022/06/18 21:39:51;;;;;;;3.03;2.55;;;;;;;13.82;75.36;96850.56;4996678;28;20057;-60
2022/06/18 21:42:19;;;;;;;3.75;3.05;;;;;;;13.82;75.25;96848.75;4996562;28;20058;-60
2022/06/18 21:44:47;;;;;;;5.13;2.47;;;;;;;13.77;75.17;96859.50;4997127;28;20077;-60
2022/06/18 21:47:16;;;;;;;7.45;3.30;;;;;;;13.75;75.08;96850.81;4996574;28;20082;-59
2022/06/18 21:49:43;;;;;;;4.20;3.00;;;;;;;13.71;75.34;96856.28;4996490;28;20054;-60
2022/06/18 21:52:11;;;;;;;3.78;2.90;;;;;;;13.63;75.50;96854.88;4996263;28;20141;-61
2022/06/18 21:54:39;;;;;;;5.50;2.95;;;;;;;13.56;75.71;96869.22;5006915;28;20049;-60
2022/06/18 21:57:10;;;;;;;4.10;2.92;;;;;;;13.48;76.21;96864.25;5015993;28;20131;-60
2022/06/18 21:59:41;;;;;;;4.10;3.00;;;;;;;13.46;76.52;96865.25;5015736;28;20061;-60
2022/06/18 22:02:09;;;;;;;4.82;3.30;;;;;;;13.47;76.42;96865.19;4997853;28;20512;-60
2022/06/18 22:04:36;;;;;;;6.72;3.05;;;;;;;13.48;76.38;96861.63;4996096;28;20440;-60
2022/06/18 22:07:03;;;;;;;3.45;3.15;;;;;;;13.50;76.17;96867.72;4996154;28;20050;-60
2022/06/18 22:09:30;;;;;;;3.65;3.10;;;;;;;13.47;76.48;96859.06;4996216;28;20050;-60
2022/06/18 22:17:30;;;;;;;6.25;2.85;;;;;;;13.47;75.91;96857.31;4997929;28;20056;-60
2022/06/18 22:19:57;;;;;;;3.30;2.70;;;;;;;13.45;76.00;96863.56;5015836;28;20459;-60
2022/06/18 22:22:25;;;;;;;4.13;2.58;;;;;;;13.42;76.13;96867.16;5014988;28;20082;-59
2022/06/18 22:24:53;;;;;;;3.28;2.80;;;;;;;13.42;76.02;96861.06;4976419;28;20484;-60
2022/06/18 22:27:23;;;;;;;3.30;3.00;;;;;;;13.42;75.82;96866.31;4976165;28;20051;-60
2022/06/18 22:29:53;;;;;;;3.03;2.70;;;;;;;13.39;75.52;96862.03;4976113;28;20053;-60
2022/06/18 22:32:21;;;;;;;3.60;2.50;;;;;;;13.39;75.18;96865.53;4976205;28;20051;-60
2022/06/18 22:34:48;;;;;;;6.65;3.75;;;;;;;13.37;75.09;96867.34;5008054;28;20100;-60
2022/06/18 22:37:16;;;;;;;3.38;3.00;;;;;;;13.28;75.18;96870.41;5015109;28;20050;-60
2022/06/18 22:39:44;;;;;;;3.50;3.00;;;;;;;13.21;75.64;96872.44;5015009;28;20065;-59
2022/06/18 22:42:12;;;;;;;10.50;2.90;;;;;;;13.21;75.70;96874.19;5015002;28;20066;-60
2022/06/18 22:44:42;;;;;;;3.38;2.90;;;;;;;13.19;75.80;96865.56;5002348;28;20101;-60
2022/06/18 22:47:11;;;;;;;2.85;2.65;;;;;;;13.16;75.48;96869.19;4995298;28;20054;-60
2022/06/18 22:49:43;;;;;;;2.97;2.78;;;;;;;13.11;76.01;96869.38;4995364;28;20050;-60
2022/06/18 22:52:13;;;;;;;4.40;3.10;;;;;;;13.05;76.33;96877.50;4995183;28;20523;-60
2022/06/18 22:54:44;;;;;;;2.92;2.72;;;;;;;12.98;76.39;96878.69;5004507;28;20046;-60
2022/06/18 22:57:11;;;;;;;3.25;2.95;;;;;;;12.98;76.26;96879.53;5014729;28;20092;-60
2022/06/18 22:59:39;;;;;;;3.08;2.65;;;;;;;13.01;76.32;96881.19;5014595;28;20108;-60
2022/06/18 23:02:06;;;;;;;4.20;3.42;;;;;;;13.06;76.17;96879.19;5014751;28;20046;-60
2022/06/18 23:04:35;;;;;;;5.72;3.22;;;;;;;13.08;76.21;96880.00;5008509;28;20042;-60
2022/06/18 23:07:04;;;;;;;3.70;3.20;;;;;;;13.13;75.88;96871.94;4997119;28;20081;-60
2022/06/18 23:09:35;;;;;;;4.13;3.05;;;;;;;13.07;75.92;96870.44;4994765;28;20129;-59
2022/06/18 23:12:04;;;;;;;3.25;2.58;;;;;;;13.12;75.64;96876.31;4995871;28;20455;-59
2022/06/18 23:14:36;;;;;;;6.40;2.60;;;;;;;13.15;75.18;96870.06;4994875;28;20081;-59
2022/06/18 23:17:06;;;;;;;4.50;2.88;;;;;;;13.07;75.46;96866.94;4994823;28;20381;-59
2022/06/18 23:19:38;;;;;;;4.22;2.65;;;;;;;13.05;75.48;96868.75;4994949;28;20054;-60
2022/06/18 23:22:06;;;;;;;3.70;2.75;;;;;;;13.02;75.93;96875.00;5005188;28;20100;-59
2022/06/18 23:24:34;;;;;;;3.35;3.05;;;;;;;13.00;75.65;96872.44;5014320;28;20103;-59
2022/06/18 23:27:01;;;;;;;4.88;2.67;;;;;;;13.00;76.63;96874.22;5014314;28;20041;-59
2022/06/18 23:29:28;;;;;;;4.55;2.70;;;;;;;13.00;76.68;96876.84;5013959;28;20077;-59
2022/06/18 23:31:56;;;;;;;4.07;2.60;;;;;;;13.02;76.35;96881.13;5006725;28;20057;-60
2022/06/18 23:34:27;;;;;;;6.18;3.00;;;;;;;12.99;76.27;96873.38;4995021;28;20058;-59
2022/06/18 23:36:58;;;;;;;3.13;2.72;;;;;;;12.97;76.13;96875.19;5013729;28;20050;-59
2022/06/18 23:39:26;;;;;;;4.85;2.67;;;;;;;12.96;75.98;96876.13;5013506;28;20049;-59
2022/06/18 23:41:53;;;;;;;3.10;2.60;;;;;;;12.95;75.93;96878.81;5012192;28;20073;-59
2022/06/18 23:44:22;;;;;;;8.60;3.10;;;;;;;12.92;76.48;96876.31;5013890;28;20056;-63
2022/06/18 23:46:52;;;;;;;5.70;3.63;;;;;;;12.93;76.88;96876.25;5013870;28;20557;-62
2022/06/18 23:49:19;;;;;;;4.40;3.05;;;;;;;12.98;76.84;96873.44;5013893;28;20087;-63
2022/06/18 23:51:46;;;;;;;2.78;2.58;;;;;;;13.01;76.12;96879.41;5013763;28;20045;-62
2022/06/18 23:54:15;;;;;;;5.18;3.03;;;;;;;12.99;75.87;96877.75;5011938;28;20500;-63
2022/06/18 23:56:42;;;;;;;2.88;2.63;;;;;;;12.96;75.80;96870.88;5013724;28;20500;-64
2022/06/18 23:59:09;;;;;;;3.38;2.72;;;;;;;13.01;75.85;96875.94;5013780;28;20125;-63
